Time;durP1;ratioP1;P1;durP2;ratioP2;P2;SDS_P1;SDS_P2;PMS_P1;PMS_P2;Temp;Humidity;BMP_temperature;BMP_pressure;BME280_temperature;BME280_humidity;BME280_pressure;Samples;Min_cycle;Max_cycle;Signal;HPM_P1;HPM_P2
2023/06/04 00:02:19;;;;;;;1.70;1.20;;;15.60;54.80;;;;;;5074358;28;20101;-68
2023/06/04 00:04:45;;;;;;;1.30;1.10;;;15.50;54.80;;;;;;5073127;28;20025;-68
2023/06/04 00:07:10;;;;;;;1.30;1.10;;;15.50;54.80;;;;;;5072351;28;20036;-68
2023/06/04 00:09:36;;;;;;;2.80;1.40;;;15.50;54.80;;;;;;5073126;28;20033;-67
2023/06/04 00:12:01;;;;;;;2.78;1.30;;;15.50;55.00;;;;;;5075797;28;20043;-67
2023/06/04 00:14:27;;;;;;;1.52;1.02;;;15.50;55.00;;;;;;5085795;28;20013;-68
2023/06/04 00:16:53;;;;;;;2.25;1.20;;;15.40;55.00;;;;;;5073137;28;20483;-68
2023/06/04 00:19:18;;;;;;;1.75;1.20;;;15.40;54.90;;;;;;5066346;28;20063;-68
2023/06/04 00:21:45;;;;;;;3.55;1.17;;;15.40;54.90;;;;;;5087177;28;20427;-68
2023/06/04 00:24:12;;;;;;;2.35;1.40;;;15.40;55.10;;;;;;5080795;28;20030;-68
2023/06/04 00:26:37;;;;;;;1.23;1.02;;;15.30;55.40;;;;;;5085618;28;20027;-68
2023/06/04 00:29:03;;;;;;;2.95;1.27;;;15.30;55.30;;;;;;5074929;28;20033;-69
2023/06/04 00:31:29;;;;;;;1.42;1.20;;;15.20;55.20;;;;;;5066857;28;20028;-69
2023/06/04 00:33:54;;;;;;;2.22;1.20;;;15.20;55.30;;;;;;5072502;28;20025;-69
2023/06/04 00:36:20;;;;;;;2.58;1.08;;;15.10;55.40;;;;;;5072288;28;20028;-69
2023/06/04 00:38:46;;;;;;;2.00;1.20;;;15.10;55.50;;;;;;5079936;28;20016;-69
2023/06/04 00:41:11;;;;;;;1.75;1.10;;;15.10;55.40;;;;;;5075380;28;20035;-69
2023/06/04 00:43:37;;;;;;;1.95;1.23;;;15.10;55.50;;;;;;5073373;28;20398;-69
2023/06/04 00:46:03;;;;;;;1.42;1.00;;;15.00;55.50;;;;;;5071513;28;20096;-68
2023/06/04 00:48:30;;;;;;;4.00;1.23;;;15.00;55.60;;;;;;5069844;28;20025;-68
2023/06/04 00:50:56;;;;;;;2.65;1.23;;;14.90;55.70;;;;;;5067805;28;20059;-68
2023/06/04 00:53:24;;;;;;;1.27;1.00;;;14.90;55.70;;;;;;5071927;28;20052;-68
2023/06/04 00:55:50;;;;;;;2.85;1.40;;;14.90;55.80;;;;;;5078755;28;20493;-68
2023/06/04 00:58:16;;;;;;;3.20;1.30;;;14.80;55.80;;;;;;5080997;28;20051;-68
2023/06/04 01:00:44;;;;;;;2.72;1.52;;;14.80;56.00;;;;;;5077938;28;20021;-68
2023/06/04 01:03:14;;;;;;;1.63;1.13;;;14.70;56.40;;;;;;5076675;28;20094;-68
2023/06/04 01:05:48;;;;;;;2.30;1.20;;;14.70;57.00;;;;;;5072014;28;20024;-68
2023/06/04 01:08:15;;;;;;;1.33;1.10;;;14.60;56.50;;;;;;5071437;28;20028;-69
2023/06/04 01:11:00;;;;;;;4.05;1.35;;;14.50;56.50;;;;;;5071450;28;20028;-68
2023/06/04 01:13:27;;;;;;;2.55;1.30;;;14.50;56.60;;;;;;5070674;28;20048;-68
2023/06/04 01:15:52;;;;;;;2.45;1.42;;;14.40;56.70;;;;;;5087447;28;20012;-67
2023/06/04 01:18:28;;;;;;;2.05;1.27;;;14.40;56.80;;;;;;5091450;28;20478;-67
2023/06/04 01:20:59;;;;;;;3.95;1.40;;;14.30;56.80;;;;;;5071560;28;20600;-68
2023/06/04 01:23:28;;;;;;;1.83;1.30;;;14.30;57.00;;;;;;5075342;28;20020;-68
2023/06/04 01:25:54;;;;;;;5.45;1.55;;;14.20;57.10;;;;;;5085569;28;20020;-68
2023/06/04 01:28:21;;;;;;;2.67;1.30;;;14.30;57.20;;;;;;5085369;28;20028;-68
2023/06/04 01:30:47;;;;;;;3.33;1.55;;;14.20;57.10;;;;;;5069511;28;20025;-68
2023/06/04 01:33:18;;;;;;;2.70;1.10;;;14.20;57.00;;;;;;5078319;28;20020;-69
2023/06/04 01:35:44;;;;;;;2.95;1.40;;;14.20;57.10;;;;;;5071383;28;20032;-68
2023/06/04 01:38:10;;;;;;;1.70;1.20;;;14.20;57.00;;;;;;5073418;28;20027;-68
2023/06/04 01:40:36;;;;;;;1.50;1.20;;;14.20;56.90;;;;;;5085314;28;20030;-68
2023/06/04 01:43:01;;;;;;;1.73;1.30;;;14.20;56.90;;;;;;5071150;28;20103;-68
2023/06/04 01:45:27;;;;;;;2.15;1.20;;;14.20;56.80;;;;;;5070946;28;20039;-68
2023/06/04 01:47:54;;;;;;;1.60;1.30;;;14.20;56.80;;;;;;5069887;28;20495;-67
2023/06/04 01:50:20;;;;;;;4.00;1.13;;;14.20;56.90;;;;;;5069747;28;20457;-67
2023/06/04 01:52:45;;;;;;;3.20;1.38;;;14.10;57.00;;;;;;5070975;28;20031;-67
2023/06/04 01:55:14;;;;;;;3.05;1.30;;;14.10;57.00;;;;;;5083427;28;20094;-68
2023/06/04 01:57:40;;;;;;;1.55;1.20;;;14.10;57.00;;;;;;5071625;28;20028;-68
2023/06/04 02:00:09;;;;;;;1.60;1.10;;;14.10;56.90;;;;;;5071444;28;20031;-68
2023/06/04 02:02:35;;;;;;;1.80;1.33;;;14.00;56.90;;;;;;5069690;28;20035;-68
2023/06/04 02:05:01;;;;;;;2.47;1.30;;;14.00;57.10;;;;;;5062388;28;20383;-68
2023/06/04 02:07:27;;;;;;;1.80;1.30;;;14.00;57.10;;;;;;5070576;28;20168;-68
2023/06/04 02:09:52;;;;;;;1.90;1.33;;;14.00;57.10;;;;;;5071028;28;20035;-68
2023/06/04 02:12:18;;;;;;;3.83;1.67;;;14.00;57.30;;;;;;5067273;28;20124;-67
2023/06/04 02:14:47;;;;;;;4.60;1.55;;;13.90;57.40;;;;;;5075966;28;20095;-67
2023/06/04 02:17:13;;;;;;;1.85;1.33;;;13.90;57.50;;;;;;5072739;28;20077;-67
2023/06/04 02:19:44;;;;;;;1.70;1.40;;;13.80;57.80;;;;;;5081829;28;20028;-67
2023/06/04 02:22:11;;;;;;;1.73;1.48;;;13.70;57.90;;;;;;5072238;28;20017;-67
2023/06/04 02:24:38;;;;;;;1.73;1.40;;;13.60;58.20;;;;;;5074342;28;20033;-68
2023/06/04 02:27:05;;;;;;;1.90;1.52;;;13.60;58.20;;;;;;5084184;28;20035;-68
2023/06/04 02:29:31;;;;;;;2.60;1.40;;;13.50;58.30;;;;;;5082075;28;20031;-67
2023/06/04 02:31:56;;;;;;;2.65;1.58;;;13.50;58.40;;;;;;5079550;28;20016;-67
2023/06/04 02:34:23;;;;;;;1.40;1.30;;;13.50;58.40;;;;;;5089813;28;20474;-67
2023/06/04 02:36:50;;;;;;;2.42;1.40;;;13.50;59.20;;;;;;5089598;28;20428;-67
2023/06/04 02:39:16;;;;;;;2.70;1.50;;;13.50;58.50;;;;;;5076726;28;20077;-67
2023/06/04 02:41:42;;;;;;;2.78;1.40;;;13.50;58.70;;;;;;5070636;28;20108;-67
2023/06/04 02:44:07;;;;;;;2.72;1.58;;;13.40;58.80;;;;;;5073396;28;20494;-67
2023/06/04 02:46:33;;;;;;;1.95;1.33;;;13.30;58.90;;;;;;5074964;28;20029;-67
2023/06/04 02:48:59;;;;;;;1.33;1.23;;;13.40;58.90;;;;;;5085141;28;20028;-68
2023/06/04 02:51:25;;;;;;;2.28;1.40;;;13.40;58.80;;;;;;5087321;28;20028;-68
2023/06/04 02:53:50;;;;;;;2.50;1.48;;;13.40;58.80;;;;;;5074931;28;20489;-68
2023/06/04 02:56:16;;;;;;;2.25;1.30;;;13.30;58.90;;;;;;5086557;28;20320;-67
2023/06/04 02:58:52;;;;;;;3.03;1.60;;;13.30;58.90;;;;;;5074407;28;20091;-68
2023/06/04 03:01:22;;;;;;;1.83;1.48;;;13.30;59.10;;;;;;5066747;28;20035;-68
2023/06/04 03:03:48;;;;;;;2.22;1.60;;;13.20;59.10;;;;;;5070174;28;20062;-69
2023/06/04 03:06:14;;;;;;;2.85;1.27;;;13.20;59.20;;;;;;5076550;28;20032;-68
2023/06/04 03:08:40;;;;;;;1.83;1.50;;;13.20;59.20;;;;;;5080016;28;20032;-68
2023/06/04 03:11:07;;;;;;;2.38;1.60;;;13.20;59.30;;;;;;5078258;28;20052;-68
2023/06/04 03:13:33;;;;;;;3.13;1.75;;;13.20;59.40;;;;;;5069435;28;20181;-68
2023/06/04 03:16:00;;;;;;;1.67;1.40;;;13.20;59.50;;;;;;5075743;28;20734;-68
2023/06/04 03:18:26;;;;;;;5.55;1.63;;;13.20;59.60;;;;;;5080105;28;20483;-68
2023/06/04 03:20:53;;;;;;;2.75;1.35;;;13.10;59.70;;;;;;5069758;28;20021;-69
2023/06/04 03:23:19;;;;;;;1.83;1.40;;;13.10;59.70;;;;;;5071896;28;20020;-69
2023/06/04 03:25:45;;;;;;;2.08;1.60;;;13.10;59.80;;;;;;5080988;28;20662;-69
2023/06/04 03:28:10;;;;;;;2.28;1.70;;;13.10;59.80;;;;;;5068532;28;20025;-68
2023/06/04 03:30:36;;;;;;;2.53;1.60;;;13.10;60.30;;;;;;5069875;28;20024;-68
2023/06/04 03:33:02;;;;;;;2.22;1.50;;;13.10;60.10;;;;;;5072360;28;20025;-68
2023/06/04 03:35:28;;;;;;;2.60;1.55;;;13.10;60.10;;;;;;5069602;28;20017;-68
2023/06/04 03:37:53;;;;;;;4.03;1.75;;;13.10;60.20;;;;;;5075241;28;20538;-68
2023/06/04 03:40:19;;;;;;;2.90;1.75;;;13.00;60.50;;;;;;5079439;28;20368;-68
2023/06/04 03:42:45;;;;;;;3.72;1.65;;;13.00;60.50;;;;;;5084455;28;20097;-67
2023/06/04 03:45:11;;;;;;;3.05;1.80;;;13.00;60.40;;;;;;5089899;28;20028;-68
2023/06/04 03:47:38;;;;;;;2.03;1.55;;;13.00;60.60;;;;;;5075101;28;20063;-68
2023/06/04 03:50:04;;;;;;;2.75;1.60;;;13.00;60.80;;;;;;5069541;28;20032;-68
2023/06/04 03:52:31;;;;;;;2.50;1.90;;;13.00;61.00;;;;;;5071193;28;20109;-68
2023/06/04 03:54:56;;;;;;;3.10;1.80;;;12.90;61.00;;;;;;5074168;28;20027;-68
2023/06/04 03:57:22;;;;;;;3.25;1.60;;;12.90;61.10;;;;;;5076644;28;20021;-68
2023/06/04 03:59:48;;;;;;;2.63;1.50;;;12.90;61.10;;;;;;5075451;28;20025;-67
2023/06/04 04:02:13;;;;;;;1.90;1.70;;;12.90;61.20;;;;;;5071021;28;20024;-68
2023/06/04 04:04:39;;;;;;;2.60;1.55;;;12.90;61.40;;;;;;5072449;28;20013;-68
2023/06/04 04:07:04;;;;;;;3.90;1.70;;;12.90;61.40;;;;;;5072762;28;20498;-68
2023/06/04 04:09:30;;;;;;;2.83;1.90;;;12.90;61.40;;;;;;5072552;28;20047;-67
2023/06/04 04:11:55;;;;;;;3.65;1.70;;;12.90;61.80;;;;;;5079369;28;20032;-66
2023/06/04 04:14:21;;;;;;;3.38;1.83;;;12.90;62.00;;;;;;5084153;28;20020;-67
2023/06/04 04:16:47;;;;;;;2.53;1.70;;;12.90;62.20;;;;;;5092442;28;20031;-67
2023/06/04 04:19:13;;;;;;;3.33;2.08;;;12.80;62.20;;;;;;5075346;28;20475;-66
2023/06/04 04:21:39;;;;;;;4.97;1.85;;;12.90;62.20;;;;;;5077263;28;20024;-67
2023/06/04 04:24:05;;;;;;;4.10;1.63;;;12.90;62.30;;;;;;5075534;28;20027;-67
2023/06/04 04:26:30;;;;;;;2.78;1.90;;;12.90;62.40;;;;;;5073240;28;20376;-67
2023/06/04 04:28:57;;;;;;;4.30;2.30;;;12.80;62.50;;;;;;5073041;28;20031;-67
2023/06/04 04:31:24;;;;;;;2.72;1.75;;;12.80;63.20;;;;;;5066483;28;20490;-67
2023/06/04 04:33:51;;;;;;;3.72;2.20;;;12.90;63.10;;;;;;5071365;28;20021;-67
2023/06/04 04:36:18;;;;;;;3.80;1.85;;;12.90;63.00;;;;;;5055646;28;20491;-67
2023/06/04 04:38:44;;;;;;;2.83;1.90;;;12.90;62.90;;;;;;5060350;28;20453;-67
2023/06/04 04:41:11;;;;;;;2.40;1.80;;;13.00;63.10;;;;;;5072743;28;20009;-67
2023/06/04 04:43:39;;;;;;;5.88;2.30;;;13.00;63.20;;;;;;5053622;28;20021;-67
2023/06/04 04:46:05;;;;;;;4.43;2.20;;;13.00;63.50;;;;;;5053653;28;20021;-67
2023/06/04 04:48:31;;;;;;;3.25;2.10;;;13.00;63.50;;;;;;5072233;28;20036;-67
2023/06/04 04:50:57;;;;;;;4.07;2.10;;;13.00;63.50;;;;;;5062426;28;20016;-68
2023/06/04 04:53:23;;;;;;;4.47;2.22;;;13.10;64.30;;;;;;5071573;28;20073;-68
2023/06/04 04:55:49;;;;;;;5.40;2.20;;;13.50;63.80;;;;;;5071573;28;20016;-68
2023/06/04 04:58:15;;;;;;;3.53;2.08;;;14.10;62.50;;;;;;5074680;28;20511;-68
2023/06/04 05:00:41;;;;;;;3.17;1.77;;;14.70;61.20;;;;;;5057414;28;20067;-68
2023/06/04 05:03:07;;;;;;;3.90;1.98;;;15.20;59.70;;;;;;5084725;28;20052;-68
2023/06/04 05:05:33;;;;;;;3.03;1.90;;;15.60;58.50;;;;;;5089631;28;20024;-68
2023/06/04 05:07:58;;;;;;;3.08;2.10;;;16.10;57.40;;;;;;5074056;28;20031;-68
2023/06/04 05:10:24;;;;;;;2.30;1.67;;;16.30;56.70;;;;;;5071469;28;20040;-67
2023/06/04 05:12:58;;;;;;;5.25;2.03;;;16.60;56.10;;;;;;5079980;28;20032;-68
2023/06/04 05:15:26;;;;;;;3.92;2.10;;;16.70;55.60;;;;;;5071518;28;20118;-68
2023/06/04 05:17:52;;;;;;;3.92;1.92;;;17.00;55.30;;;;;;5071414;28;20033;-68
2023/06/04 05:20:18;;;;;;;4.18;2.03;;;17.10;55.10;;;;;;5071575;28;20496;-68
2023/06/04 05:22:45;;;;;;;5.72;2.28;;;17.40;54.60;;;;;;5078598;28;20028;-68
2023/06/04 05:25:11;;;;;;;5.45;2.50;;;17.50;54.20;;;;;;5072269;28;20505;-69
2023/06/04 05:27:37;;;;;;;3.33;1.80;;;17.50;54.20;;;;;;5079298;28;20081;-69
2023/06/04 05:30:03;;;;;;;3.22;2.03;;;17.60;54.10;;;;;;5089088;28;20032;-68
2023/06/04 05:32:30;;;;;;;5.45;1.90;;;17.80;53.80;;;;;;5074503;28;20028;-68
2023/06/04 05:34:57;;;;;;;2.55;1.83;;;18.10;53.40;;;;;;5073795;28;20425;-68
2023/06/04 05:37:27;;;;;;;3.03;1.80;;;18.30;53.20;;;;;;5071824;28;20021;-68
2023/06/04 05:39:53;;;;;;;2.72;1.80;;;18.60;52.70;;;;;;5076893;28;20027;-68
2023/06/04 05:42:19;;;;;;;3.70;1.92;;;18.80;52.30;;;;;;5072659;28;20059;-68
2023/06/04 05:44:45;;;;;;;3.35;1.90;;;19.10;51.90;;;;;;5079474;28;20048;-68
2023/06/04 05:47:11;;;;;;;3.70;2.03;;;19.10;51.60;;;;;;5069155;28;20032;-68
2023/06/04 05:49:36;;;;;;;3.33;1.90;;;19.00;51.80;;;;;;5066441;28;20101;-68
2023/06/04 05:52:02;;;;;;;2.60;1.63;;;19.10;52.00;;;;;;5072619;28;20059;-69
2023/06/04 05:54:29;;;;;;;3.50;1.95;;;19.10;51.90;;;;;;5076075;28;20560;-68
2023/06/04 05:56:55;;;;;;;5.07;2.28;;;19.20;51.80;;;;;;5071833;28;20020;-68
2023/06/04 05:59:21;;;;;;;3.67;2.10;;;19.00;52.00;;;;;;5074304;28;20484;-67
2023/06/04 06:01:47;;;;;;;4.40;2.10;;;18.90;52.20;;;;;;5069197;28;20245;-67
2023/06/04 06:04:15;;;;;;;3.65;1.90;;;18.90;52.60;;;;;;5070821;28;20479;-67
2023/06/04 06:06:43;;;;;;;3.67;1.98;;;18.80;52.80;;;;;;5067761;28;20105;-67
2023/06/04 06:09:09;;;;;;;2.22;1.60;;;18.80;53.50;;;;;;5067390;28;20023;-67
2023/06/04 06:11:35;;;;;;;6.00;2.20;;;18.70;52.90;;;;;;5070415;28;20028;-67
2023/06/04 06:14:01;;;;;;;5.88;1.85;;;18.50;53.00;;;;;;5068695;28;20044;-68
2023/06/04 06:16:27;;;;;;;3.22;2.10;;;18.50;53.30;;;;;;5074093;28;20069;-67
2023/06/04 06:18:53;;;;;;;3.05;1.67;;;18.30;53.40;;;;;;5071989;28;20024;-67
2023/06/04 06:21:19;;;;;;;3.75;1.90;;;18.30;53.70;;;;;;5069155;28;20029;-67
2023/06/04 06:23:45;;;;;;;3.30;1.90;;;18.30;53.70;;;;;;5068656;28;20031;-67
2023/06/04 06:26:11;;;;;;;2.72;1.77;;;18.30;53.80;;;;;;5068234;28;20474;-68
2023/06/04 06:28:37;;;;;;;4.00;1.80;;;18.30;53.80;;;;;;5074863;28;20032;-67
2023/06/04 06:31:03;;;;;;;4.90;2.13;;;18.30;53.50;;;;;;5075430;28;20035;-67
2023/06/04 06:33:28;;;;;;;2.90;1.88;;;18.30;53.50;;;;;;5083005;28;20022;-67
2023/06/04 06:35:54;;;;;;;3.28;1.95;;;18.50;53.40;;;;;;5062469;28;20035;-68
2023/06/04 06:38:19;;;;;;;2.40;1.63;;;18.60;53.10;;;;;;5056408;28;20024;-68
2023/06/04 06:40:45;;;;;;;3.47;1.70;;;18.70;52.70;;;;;;5062564;28;20016;-68
2023/06/04 06:43:11;;;;;;;3.15;1.63;;;18.80;52.50;;;;;;5074177;28;20663;-68
2023/06/04 06:45:37;;;;;;;4.43;2.20;;;19.00;52.30;;;;;;5074008;28;20033;-68
2023/06/04 06:48:03;;;;;;;3.65;1.60;;;19.10;51.70;;;;;;5081568;28;20076;-69
2023/06/04 06:50:29;;;;;;;4.15;1.83;;;19.10;51.60;;;;;;5069545;28;20032;-68
2023/06/04 06:52:55;;;;;;;2.40;1.48;;;19.20;51.60;;;;;;5076903;28;20028;-68
2023/06/04 06:55:20;;;;;;;2.35;1.48;;;19.40;51.40;;;;;;5072524;28;20028;-69
2023/06/04 06:57:46;;;;;;;3.20;1.50;;;19.50;51.20;;;;;;5080610;28;20016;-68
2023/06/04 07:00:12;;;;;;;3.22;1.60;;;19.70;50.90;;;;;;5071116;28;20025;-67
2023/06/04 07:02:38;;;;;;;3.40;1.73;;;19.80;50.60;;;;;;5067889;28;20024;-67
2023/06/04 07:05:03;;;;;;;2.85;1.60;;;19.90;50.40;;;;;;5076665;28;20025;-67
2023/06/04 07:07:29;;;;;;;3.67;1.63;;;20.10;50.10;;;;;;5069924;28;20032;-67
2023/06/04 07:09:55;;;;;;;2.45;1.60;;;20.10;49.90;;;;;;5070053;28;20032;-68
2023/06/04 07:12:21;;;;;;;3.22;1.83;;;20.20;49.80;;;;;;5049798;28;20079;-67
2023/06/04 07:14:46;;;;;;;3.28;1.67;;;20.20;49.40;;;;;;5074153;28;20104;-67
2023/06/04 07:17:12;;;;;;;3.22;1.70;;;20.30;49.20;;;;;;5062617;28;20095;-68
2023/06/04 07:19:37;;;;;;;4.60;1.65;;;20.40;48.80;;;;;;5061466;28;20029;-67
2023/06/04 07:22:03;;;;;;;2.97;1.80;;;20.60;48.80;;;;;;5060499;28;20029;-68
2023/06/04 07:24:29;;;;;;;2.92;1.58;;;20.50;48.50;;;;;;5057522;28;20031;-68
2023/06/04 07:26:54;;;;;;;2.85;1.80;;;20.50;48.50;;;;;;5055613;28;20021;-68
2023/06/04 07:29:20;;;;;;;4.00;1.70;;;20.60;48.60;;;;;;5063752;28;20327;-68
2023/06/04 07:31:45;;;;;;;3.50;1.60;;;20.60;48.40;;;;;;5052353;28;20480;-68
2023/06/04 07:34:11;;;;;;;3.17;1.35;;;20.80;48.30;;;;;;5084287;28;20038;-68
2023/06/04 07:36:37;;;;;;;3.13;1.50;;;20.90;47.70;;;;;;5072123;28;20039;-68
2023/06/04 07:39:04;;;;;;;2.25;1.42;;;21.00;47.20;;;;;;5074396;28;20020;-68
2023/06/04 07:41:30;;;;;;;2.83;1.48;;;21.00;47.20;;;;;;5073024;28;20108;-68
2023/06/04 07:43:55;;;;;;;2.42;1.50;;;21.10;47.30;;;;;;5078806;28;20518;-67
2023/06/04 07:46:21;;;;;;;3.63;1.85;;;21.20;47.40;;;;;;5082960;28;20028;-68
2023/06/04 07:48:46;;;;;;;3.88;1.85;;;21.30;46.90;;;;;;5086006;28;20020;-69
2023/06/04 07:51:13;;;;;;;2.40;1.50;;;21.20;45.80;;;;;;5072515;28;20099;-68
2023/06/04 07:53:39;;;;;;;1.70;1.23;;;21.20;46.20;;;;;;5073232;28;20071;-66
2023/06/04 07:56:05;;;;;;;3.45;1.70;;;21.40;46.40;;;;;;5076094;28;20024;-67
2023/06/04 07:58:31;;;;;;;3.65;1.55;;;21.60;46.10;;;;;;5071919;28;20025;-68
2023/06/04 08:00:57;;;;;;;3.58;1.60;;;21.70;45.60;;;;;;5075425;28;20684;-68
2023/06/04 08:03:24;;;;;;;2.88;1.50;;;21.60;45.10;;;;;;5071277;28;20032;-68
2023/06/04 08:05:49;;;;;;;2.88;1.40;;;21.50;45.70;;;;;;5074340;28;20560;-67
2023/06/04 08:08:15;;;;;;;2.05;1.13;;;21.60;45.40;;;;;;5073981;28;20028;-68
2023/06/04 08:10:41;;;;;;;2.45;1.40;;;21.70;44.50;;;;;;5070865;28;20060;-67
2023/06/04 08:13:06;;;;;;;2.35;1.30;;;21.50;43.80;;;;;;5072586;28;20036;-67
2023/06/04 08:15:32;;;;;;;3.88;1.30;;;21.50;44.30;;;;;;5070976;28;20028;-68
2023/06/04 08:17:57;;;;;;;1.85;1.33;;;21.60;44.60;;;;;;5073382;28;20024;-67
2023/06/04 08:20:23;;;;;;;2.00;1.20;;;21.80;44.50;;;;;;5070957;28;20033;-67
2023/06/04 08:22:49;;;;;;;2.10;1.20;;;22.00;44.30;;;;;;5071491;28;20033;-68
2023/06/04 08:25:15;;;;;;;2.45;1.33;;;22.10;43.80;;;;;;5077572;28;20536;-68
2023/06/04 08:27:41;;;;;;;3.78;1.30;;;22.30;43.60;;;;;;5071558;28;20032;-68
2023/06/04 08:30:08;;;;;;;2.40;1.40;;;22.40;43.50;;;;;;5066791;28;20028;-67
2023/06/04 08:32:34;;;;;;;2.95;1.13;;;22.40;43.10;;;;;;5072517;28;20033;-68
2023/06/04 08:35:00;;;;;;;2.45;1.13;;;22.50;42.90;;;;;;5073038;28;20023;-67
2023/06/04 08:37:25;;;;;;;2.85;1.40;;;22.60;42.60;;;;;;5071286;28;20029;-67
2023/06/04 08:39:52;;;;;;;1.90;1.00;;;22.60;42.20;;;;;;5074244;28;20028;-67
2023/06/04 08:42:42;;;;;;;2.85;1.30;;;22.70;42.50;;;;;;5072565;28;20028;-66
2023/06/04 08:45:18;;;;;;;2.35;1.20;;;22.70;42.20;;;;;;5066484;28;20029;-67
2023/06/04 08:47:48;;;;;;;2.15;1.17;;;22.70;42.30;;;;;;5069233;28;20399;-67
2023/06/04 08:50:18;;;;;;;2.60;1.50;;;22.80;41.60;;;;;;5070029;28;20055;-68
2023/06/04 08:52:44;;;;;;;1.70;1.10;;;22.80;41.20;;;;;;5068852;28;20024;-68
2023/06/04 08:55:13;;;;;;;2.33;1.17;;;22.80;41.30;;;;;;5074934;28;20023;-67
2023/06/04 08:57:40;;;;;;;1.83;1.05;;;22.90;41.30;;;;;;5073204;28;20028;-67
2023/06/04 09:00:07;;;;;;;2.28;1.30;;;22.90;41.00;;;;;;5071659;28;20020;-68
2023/06/04 09:02:36;;;;;;;2.00;1.10;;;22.80;38.20;;;;;;5068810;28;20043;-68
2023/06/04 09:05:08;;;;;;;2.85;1.10;;;22.70;38.80;;;;;;5070847;28;20016;-67
2023/06/04 09:07:36;;;;;;;2.15;1.10;;;22.80;39.00;;;;;;5068644;28;20036;-68
2023/06/04 09:10:04;;;;;;;1.88;1.17;;;22.90;39.40;;;;;;5070635;28;20035;-67
2023/06/04 09:12:31;;;;;;;2.33;1.30;;;23.10;39.70;;;;;;5077026;28;20028;-67
2023/06/04 09:14:57;;;;;;;2.08;1.30;;;23.40;39.60;;;;;;5071739;28;20013;-68
2023/06/04 09:17:23;;;;;;;1.52;1.20;;;23.40;39.30;;;;;;5073901;28;20371;-68
2023/06/04 09:19:50;;;;;;;1.35;1.02;;;23.30;39.20;;;;;;5067467;28;21415;-67
2023/06/04 09:22:16;;;;;;;2.08;1.00;;;23.40;39.00;;;;;;5073601;28;20028;-68
2023/06/04 09:24:47;;;;;;;2.75;1.10;;;23.50;38.80;;;;;;5071128;28;20412;-68
2023/06/04 09:27:15;;;;;;;1.17;0.98;;;23.40;37.30;;;;;;5069467;28;20024;-68
2023/06/04 09:29:52;;;;;;;2.42;1.10;;;23.30;36.90;;;;;;5072843;28;20037;-68
2023/06/04 09:32:30;;;;;;;1.80;1.00;;;23.50;36.90;;;;;;5073702;28;20028;-69
2023/06/04 09:35:08;;;;;;;3.20;0.90;;;23.40;35.40;;;;;;5079344;28;20074;-68
2023/06/04 09:37:34;;;;;;;1.65;1.00;;;23.20;36.40;;;;;;5074911;28;20027;-68
2023/06/04 09:40:00;;;;;;;2.05;0.90;;;23.40;37.00;;;;;;5068231;28;20027;-68
2023/06/04 09:42:26;;;;;;;1.92;0.98;;;23.50;37.00;;;;;;5065404;28;20024;-68
2023/06/04 09:44:52;;;;;;;2.63;1.08;;;23.60;36.20;;;;;;5070267;28;20482;-66
2023/06/04 09:47:17;;;;;;;0.82;0.80;;;23.70;35.60;;;;;;5075520;28;20029;-67
2023/06/04 09:49:44;;;;;;;1.40;0.90;;;23.60;34.80;;;;;;5071851;28;20024;-67
2023/06/04 09:52:10;;;;;;;1.80;1.00;;;23.50;35.30;;;;;;5073413;28;20024;-67
2023/06/04 09:54:41;;;;;;;1.92;1.10;;;23.60;35.30;;;;;;5073335;28;20516;-68
2023/06/04 09:57:17;;;;;;;1.60;1.00;;;23.50;35.50;;;;;;5069603;28;20040;-68
2023/06/04 09:59:49;;;;;;;1.88;0.90;;;23.70;36.10;;;;;;5071667;28;20009;-67
2023/06/04 10:02:20;;;;;;;2.60;1.10;;;23.90;35.80;;;;;;5070817;28;20020;-67
2023/06/04 10:04:51;;;;;;;2.60;1.10;;;24.10;35.80;;;;;;5068765;28;21171;-68
2023/06/04 10:07:17;;;;;;;2.53;1.00;;;24.30;35.60;;;;;;5073946;28;20016;-68
2023/06/04 10:09:45;;;;;;;2.25;0.98;;;24.30;33.60;;;;;;5071142;28;20186;-68
2023/06/04 10:12:17;;;;;;;1.48;1.20;;;23.90;34.30;;;;;;5075637;28;20062;-68
2023/06/04 10:14:57;;;;;;;2.55;1.15;;;23.90;35.10;;;;;;5065352;28;20024;-69
2023/06/04 10:17:24;;;;;;;1.35;0.98;;;24.10;34.90;;;;;;5069687;28;20483;-68
2023/06/04 10:19:54;;;;;;;1.33;0.90;;;24.30;34.80;;;;;;5070412;28;20028;-68
2023/06/04 10:22:22;;;;;;;1.85;1.05;;;24.20;34.80;;;;;;5069477;28;20443;-68
2023/06/04 10:24:48;;;;;;;1.52;0.95;;;24.20;34.20;;;;;;5069852;28;20617;-68
2023/06/04 10:27:16;;;;;;;2.03;1.00;;;24.30;34.50;;;;;;5069755;28;20032;-68
2023/06/04 10:29:42;;;;;;;1.58;1.10;;;24.20;34.30;;;;;;5071034;28;20017;-68
2023/06/04 10:32:08;;;;;;;2.05;1.10;;;24.00;35.20;;;;;;5063882;28;20025;-68
2023/06/04 10:34:35;;;;;;;2.90;1.23;;;24.00;35.10;;;;;;5067930;28;20016;-68
2023/06/04 10:37:02;;;;;;;2.50;1.27;;;24.20;35.30;;;;;;5069416;28;20050;-68
2023/06/04 10:39:29;;;;;;;1.65;1.10;;;24.20;35.30;;;;;;5068350;28;20016;-68
2023/06/04 10:42:02;;;;;;;1.52;1.00;;;24.30;35.20;;;;;;5068968;28;20028;-67
2023/06/04 10:44:32;;;;;;;1.75;0.90;;;24.40;35.30;;;;;;5073225;28;20036;-68
2023/06/04 10:46:58;;;;;;;1.67;1.17;;;24.50;35.20;;;;;;5063977;28;20016;-68
2023/06/04 10:49:28;;;;;;;2.40;1.00;;;24.60;35.10;;;;;;5062899;28;20025;-67
2023/06/04 10:52:02;;;;;;;2.60;1.00;;;24.60;35.10;;;;;;5063998;28;20028;-68
2023/06/04 10:54:28;;;;;;;1.02;0.90;;;24.70;34.80;;;;;;5068085;28;20111;-68
2023/06/04 10:56:54;;;;;;;1.15;0.90;;;24.60;34.80;;;;;;5061854;28;20159;-67
2023/06/04 10:59:20;;;;;;;2.35;1.00;;;24.70;35.10;;;;;;5064731;28;20024;-68
2023/06/04 11:01:46;;;;;;;2.80;1.33;;;24.80;35.10;;;;;;5066140;28;20545;-68
2023/06/04 11:04:22;;;;;;;1.30;1.10;;;24.80;33.60;;;;;;5070390;28;20024;-68
2023/06/04 11:07:09;;;;;;;1.85;1.10;;;24.60;33.80;;;;;;5070062;28;20071;-68
2023/06/04 11:09:35;;;;;;;2.00;0.90;;;24.80;33.90;;;;;;5073692;28;20494;-68
2023/06/04 11:12:05;;;;;;;1.20;1.00;;;25.00;33.80;;;;;;5069582;28;20029;-68
2023/06/04 11:14:31;;;;;;;1.73;0.90;;;25.10;33.70;;;;;;5070021;28;20024;-68
2023/06/04 11:16:57;;;;;;;1.02;0.93;;;25.30;33.60;;;;;;5071455;28;20031;-68
2023/06/04 11:19:22;;;;;;;1.50;1.10;;;25.40;33.20;;;;;;5075497;28;20032;-67
2023/06/04 11:21:49;;;;;;;2.20;1.10;;;25.30;32.80;;;;;;5063417;28;20492;-68
2023/06/04 11:24:16;;;;;;;2.55;1.33;;;25.20;33.20;;;;;;5075079;28;20111;-67
2023/06/04 11:26:42;;;;;;;1.50;1.13;;;25.00;32.90;;;;;;5066403;28;20483;-68
2023/06/04 11:29:11;;;;;;;1.23;0.90;;;24.90;33.30;;;;;;5067013;28;20051;-67
2023/06/04 11:31:44;;;;;;;1.33;1.10;;;25.20;33.40;;;;;;5074041;28;20035;-67
2023/06/04 11:34:13;;;;;;;2.75;1.27;;;25.20;32.80;;;;;;5069918;28;20029;-67
2023/06/04 11:36:39;;;;;;;1.10;1.00;;;24.60;32.80;;;;;;5069375;28;20012;-68
2023/06/04 11:39:06;;;;;;;1.90;1.00;;;24.50;33.40;;;;;;5065799;28;20020;-67
2023/06/04 11:41:34;;;;;;;1.60;1.08;;;24.50;33.60;;;;;;5065099;28;20029;-67
2023/06/04 11:44:05;;;;;;;2.08;1.23;;;24.70;33.80;;;;;;5068162;28;20024;-68
2023/06/04 11:46:33;;;;;;;2.20;1.30;;;24.70;33.40;;;;;;5068576;28;20020;-68
2023/06/04 11:48:59;;;;;;;3.70;1.45;;;24.50;33.60;;;;;;5069885;28;20032;-68
2023/06/04 11:51:25;;;;;;;2.92;1.20;;;24.80;33.50;;;;;;5069316;28;20020;-67
2023/06/04 11:53:51;;;;;;;2.33;1.15;;;24.90;33.40;;;;;;5073667;28;20087;-67
2023/06/04 11:56:18;;;;;;;1.70;0.95;;;24.90;33.20;;;;;;5068679;28;20013;-67
2023/06/04 11:58:46;;;;;;;2.22;1.02;;;25.00;33.40;;;;;;5067467;28;20028;-67
2023/06/04 12:01:13;;;;;;;2.33;1.25;;;25.30;33.20;;;;;;5067989;28;20025;-69
2023/06/04 12:03:42;;;;;;;1.70;1.20;;;25.70;33.10;;;;;;5068491;28;20028;-67
2023/06/04 12:06:11;;;;;;;1.40;1.10;;;25.70;32.60;;;;;;5063982;28;20036;-67
2023/06/04 12:08:49;;;;;;;1.80;1.23;;;26.00;32.50;;;;;;5068521;28;20078;-67
2023/06/04 12:11:31;;;;;;;3.20;1.10;;;26.10;32.00;;;;;;5067070;28;20109;-67
2023/06/04 12:13:58;;;;;;;1.15;1.05;;;25.90;32.00;;;;;;5064391;28;20039;-67
2023/06/04 12:16:24;;;;;;;1.77;1.08;;;26.20;32.20;;;;;;5067324;28;20028;-67
2023/06/04 12:18:50;;;;;;;1.92;1.20;;;26.10;31.80;;;;;;5069177;28;20020;-68
2023/06/04 12:21:27;;;;;;;2.25;1.00;;;26.10;32.10;;;;;;5066647;28;20032;-68
2023/06/04 12:24:08;;;;;;;2.03;1.17;;;26.00;32.30;;;;;;5073196;28;20016;-67
2023/06/04 12:26:37;;;;;;;1.55;1.10;;;25.80;31.90;;;;;;5072693;28;20028;-68
2023/06/04 12:29:17;;;;;;;1.27;0.90;;;26.00;32.50;;;;;;5073997;28;20721;-68
2023/06/04 12:31:45;;;;;;;1.67;1.10;;;26.30;32.20;;;;;;5074506;28;20033;-68
2023/06/04 12:34:11;;;;;;;2.28;1.20;;;26.40;32.00;;;;;;5073753;28;20021;-67
2023/06/04 12:36:38;;;;;;;1.75;0.95;;;26.70;31.70;;;;;;5078526;28;20028;-68
2023/06/04 12:39:05;;;;;;;2.13;1.48;;;26.30;31.60;;;;;;5068391;28;20104;-68
2023/06/04 12:41:31;;;;;;;2.65;1.38;;;26.20;31.60;;;;;;5071481;28;20016;-68
2023/06/04 12:43:57;;;;;;;2.58;1.60;;;26.20;31.70;;;;;;5067548;28;20024;-68
2023/06/04 12:46:23;;;;;;;1.98;1.10;;;26.00;31.70;;;;;;5070015;28;20025;-68
2023/06/04 12:48:51;;;;;;;2.53;1.17;;;25.90;32.20;;;;;;5069581;28;20024;-67